sensor_id;sensor_type;location;lat;lon;timestamp;P1;durP1;ratioP1;P2;durP2;ratioP2
49764;SDS011;35657;51.204;-4.130;2023-04-03T00:02:17;6.88;;;3.38;;
49764;SDS011;35657;51.204;-4.130;2023-04-03T00:04:43;7.38;;;4.53;;
49764;SDS011;35657;51.204;-4.130;2023-04-03T00:07:08;6.53;;;3.22;;
49764;SDS011;35657;51.204;-4.130;2023-04-03T00:09:34;9.52;;;4.07;;
49764;SDS011;35657;51.204;-4.130;2023-04-03T00:12:00;10.55;;;4.07;;
49764;SDS011;35657;51.204;-4.130;2023-04-03T00:14:26;13.00;;;3.75;;
49764;SDS011;35657;51.204;-4.130;2023-04-03T00:16:52;9.48;;;3.85;;
49764;SDS011;35657;51.204;-4.130;2023-04-03T00:19:18;9.02;;;4.45;;
49764;SDS011;35657;51.204;-4.130;2023-04-03T00:21:44;10.75;;;3.53;;
49764;SDS011;35657;51.204;-4.130;2023-04-03T00:24:10;8.38;;;4.10;;
49764;SDS011;35657;51.204;-4.130;2023-04-03T00:26:36;7.18;;;3.92;;
49764;SDS011;35657;51.204;-4.130;2023-04-03T00:29:02;10.25;;;3.22;;
49764;SDS011;35657;51.204;-4.130;2023-04-03T00:31:27;7.50;;;3.95;;
49764;SDS011;35657;51.204;-4.130;2023-04-03T00:33:53;9.35;;;4.35;;
49764;SDS011;35657;51.204;-4.130;2023-04-03T00:36:19;6.45;;;3.40;;
49764;SDS011;35657;51.204;-4.130;2023-04-03T00:38:45;11.88;;;3.97;;
49764;SDS011;35657;51.204;-4.130;2023-04-03T00:41:10;9.27;;;3.45;;
49764;SDS011;35657;51.204;-4.130;2023-04-03T00:43:36;6.28;;;3.45;;
49764;SDS011;35657;51.204;-4.130;2023-04-03T00:46:02;5.30;;;2.83;;
49764;SDS011;35657;51.204;-4.130;2023-04-03T00:48:36;8.80;;;3.75;;
49764;SDS011;35657;51.204;-4.130;2023-04-03T00:51:09;4.07;;;3.13;;
49764;SDS011;35657;51.204;-4.130;2023-04-03T00:54:21;7.88;;;3.20;;
49764;SDS011;35657;51.204;-4.130;2023-04-03T00:56:29;8.05;;;3.58;;
49764;SDS011;35657;51.204;-4.130;2023-04-03T00:58:59;9.40;;;3.53;;
49764;SDS011;35657;51.204;-4.130;2023-04-03T01:01:31;6.55;;;3.00;;
49764;SDS011;35657;51.204;-4.130;2023-04-03T01:03:58;5.40;;;3.13;;
49764;SDS011;35657;51.204;-4.130;2023-04-03T01:06:26;6.07;;;3.35;;
49764;SDS011;35657;51.204;-4.130;2023-04-03T01:08:58;6.90;;;3.58;;
49764;SDS011;35657;51.204;-4.130;2023-04-03T01:11:25;9.15;;;3.70;;
49764;SDS011;35657;51.204;-4.130;2023-04-03T01:13:51;4.60;;;3.03;;
49764;SDS011;35657;51.204;-4.130;2023-04-03T01:16:17;6.28;;;2.88;;
49764;SDS011;35657;51.204;-4.130;2023-04-03T01:18:44;4.05;;;2.85;;
49764;SDS011;35657;51.204;-4.130;2023-04-03T01:21:19;10.15;;;4.28;;
49764;SDS011;35657;51.204;-4.130;2023-04-03T01:26:59;8.95;;;3.05;;
49764;SDS011;35657;51.204;-4.130;2023-04-03T01:29:27;4.32;;;2.60;;
49764;SDS011;35657;51.204;-4.130;2023-04-03T01:31:54;8.73;;;3.55;;
49764;SDS011;35657;51.204;-4.130;2023-04-03T01:34:22;6.45;;;2.53;;
49764;SDS011;35657;51.204;-4.130;2023-04-03T01:36:48;7.88;;;2.42;;
49764;SDS011;35657;51.204;-4.130;2023-04-03T01:39:15;7.93;;;2.38;;
49764;SDS011;35657;51.204;-4.130;2023-04-03T01:41:41;6.22;;;2.80;;
49764;SDS011;35657;51.204;-4.130;2023-04-03T01:44:07;4.47;;;2.25;;
49764;SDS011;35657;51.204;-4.130;2023-04-03T01:46:33;3.75;;;2.50;;
49764;SDS011;35657;51.204;-4.130;2023-04-03T01:48:59;6.07;;;2.55;;
49764;SDS011;35657;51.204;-4.130;2023-04-03T01:51:24;5.07;;;2.20;;
49764;SDS011;35657;51.204;-4.130;2023-04-03T01:53:50;3.70;;;2.10;;
49764;SDS011;35657;51.204;-4.130;2023-04-03T01:56:16;2.75;;;2.10;;
49764;SDS011;35657;51.204;-4.130;2023-04-03T01:58:42;7.45;;;2.20;;
49764;SDS011;35657;51.204;-4.130;2023-04-03T02:01:08;4.30;;;2.30;;
49764;SDS011;35657;51.204;-4.130;2023-04-03T02:03:33;3.83;;;2.13;;
49764;SDS011;35657;51.204;-4.130;2023-04-03T02:05:59;5.15;;;2.25;;
49764;SDS011;35657;51.204;-4.130;2023-04-03T02:08:25;6.57;;;2.05;;
49764;SDS011;35657;51.204;-4.130;2023-04-03T02:10:51;7.43;;;2.03;;
49764;SDS011;35657;51.204;-4.130;2023-04-03T02:13:17;7.75;;;2.20;;
49764;SDS011;35657;51.204;-4.130;2023-04-03T02:15:42;6.55;;;2.28;;
49764;SDS011;35657;51.204;-4.130;2023-04-03T02:18:09;3.55;;;1.98;;
49764;SDS011;35657;51.204;-4.130;2023-04-03T02:20:35;4.38;;;1.70;;
49764;SDS011;35657;51.204;-4.130;2023-04-03T02:23:00;5.10;;;1.70;;
49764;SDS011;35657;51.204;-4.130;2023-04-03T02:25:26;5.13;;;1.95;;
49764;SDS011;35657;51.204;-4.130;2023-04-03T02:27:52;6.63;;;1.83;;
49764;SDS011;35657;51.204;-4.130;2023-04-03T02:30:17;6.80;;;2.42;;
49764;SDS011;35657;51.204;-4.130;2023-04-03T02:32:44;7.88;;;2.08;;
49764;SDS011;35657;51.204;-4.130;2023-04-03T02:35:10;7.03;;;1.98;;
49764;SDS011;35657;51.204;-4.130;2023-04-03T02:37:36;3.80;;;1.70;;
49764;SDS011;35657;51.204;-4.130;2023-04-03T02:40:03;3.25;;;1.48;;
49764;SDS011;35657;51.204;-4.130;2023-04-03T02:42:29;6.45;;;1.70;;
49764;SDS011;35657;51.204;-4.130;2023-04-03T02:44:55;12.80;;;1.85;;
49764;SDS011;35657;51.204;-4.130;2023-04-03T02:47:20;4.38;;;1.60;;
49764;SDS011;35657;51.204;-4.130;2023-04-03T02:49:46;4.43;;;1.45;;
49764;SDS011;35657;51.204;-4.130;2023-04-03T02:52:12;4.82;;;1.70;;
49764;SDS011;35657;51.204;-4.130;2023-04-03T02:54:38;1.65;;;1.40;;
49764;SDS011;35657;51.204;-4.130;2023-04-03T02:57:04;7.50;;;2.10;;
49764;SDS011;35657;51.204;-4.130;2023-04-03T02:59:30;7.45;;;2.08;;
49764;SDS011;35657;51.204;-4.130;2023-04-03T03:01:56;5.75;;;1.98;;
49764;SDS011;35657;51.204;-4.130;2023-04-03T03:04:22;3.30;;;1.83;;
49764;SDS011;35657;51.204;-4.130;2023-04-03T03:06:47;3.97;;;2.10;;
49764;SDS011;35657;51.204;-4.130;2023-04-03T03:09:13;3.40;;;1.80;;
49764;SDS011;35657;51.204;-4.130;2023-04-03T03:11:39;8.27;;;2.72;;
49764;SDS011;35657;51.204;-4.130;2023-04-03T03:14:05;3.95;;;1.77;;
49764;SDS011;35657;51.204;-4.130;2023-04-03T03:16:31;4.43;;;2.05;;
49764;SDS011;35657;51.204;-4.130;2023-04-03T03:18:57;3.35;;;1.58;;
49764;SDS011;35657;51.204;-4.130;2023-04-03T03:21:22;6.03;;;2.33;;
49764;SDS011;35657;51.204;-4.130;2023-04-03T03:23:48;6.80;;;2.55;;
49764;SDS011;35657;51.204;-4.130;2023-04-03T03:26:14;7.65;;;2.22;;
49764;SDS011;35657;51.204;-4.130;2023-04-03T03:28:40;3.67;;;1.58;;
49764;SDS011;35657;51.204;-4.130;2023-04-03T03:31:06;7.70;;;2.38;;
49764;SDS011;35657;51.204;-4.130;2023-04-03T03:33:34;3.28;;;2.20;;
49764;SDS011;35657;51.204;-4.130;2023-04-03T03:36:00;5.68;;;2.05;;
49764;SDS011;35657;51.204;-4.130;2023-04-03T03:38:25;9.35;;;2.30;;
49764;SDS011;35657;51.204;-4.130;2023-04-03T03:40:51;6.65;;;2.05;;
49764;SDS011;35657;51.204;-4.130;2023-04-03T03:43:17;6.25;;;1.98;;
49764;SDS011;35657;51.204;-4.130;2023-04-03T03:45:44;5.75;;;1.67;;
49764;SDS011;35657;51.204;-4.130;2023-04-03T03:48:10;4.90;;;2.25;;
49764;SDS011;35657;51.204;-4.130;2023-04-03T03:50:36;5.93;;;2.20;;
49764;SDS011;35657;51.204;-4.130;2023-04-03T03:53:02;6.60;;;2.05;;
49764;SDS011;35657;51.204;-4.130;2023-04-03T03:55:27;2.63;;;1.83;;
49764;SDS011;35657;51.204;-4.130;2023-04-03T03:57:53;2.40;;;1.45;;
49764;SDS011;35657;51.204;-4.130;2023-04-03T04:00:19;3.85;;;1.83;;
49764;SDS011;35657;51.204;-4.130;2023-04-03T04:02:45;4.88;;;2.05;;
49764;SDS011;35657;51.204;-4.130;2023-04-03T04:05:11;6.32;;;1.98;;
49764;SDS011;35657;51.204;-4.130;2023-04-03T04:07:36;4.30;;;1.83;;
49764;SDS011;35657;51.204;-4.130;2023-04-03T04:10:02;3.15;;;1.73;;
49764;SDS011;35657;51.204;-4.130;2023-04-03T04:12:28;7.97;;;1.83;;
49764;SDS011;35657;51.204;-4.130;2023-04-03T04:14:54;7.15;;;2.17;;
49764;SDS011;35657;51.204;-4.130;2023-04-03T04:17:20;5.95;;;2.83;;
49764;SDS011;35657;51.204;-4.130;2023-04-03T04:19:46;4.05;;;1.80;;
49764;SDS011;35657;51.204;-4.130;2023-04-03T04:22:12;6.63;;;2.22;;
49764;SDS011;35657;51.204;-4.130;2023-04-03T04:24:37;5.88;;;2.13;;
49764;SDS011;35657;51.204;-4.130;2023-04-03T04:27:03;8.40;;;2.35;;
49764;SDS011;35657;51.204;-4.130;2023-04-03T04:29:29;6.30;;;1.90;;
49764;SDS011;35657;51.204;-4.130;2023-04-03T04:31:55;4.35;;;2.05;;
49764;SDS011;35657;51.204;-4.130;2023-04-03T04:34:21;7.20;;;2.25;;
49764;SDS011;35657;51.204;-4.130;2023-04-03T04:36:46;8.50;;;2.22;;
49764;SDS011;35657;51.204;-4.130;2023-04-03T04:39:12;5.65;;;2.15;;
49764;SDS011;35657;51.204;-4.130;2023-04-03T04:41:38;11.98;;;2.97;;
49764;SDS011;35657;51.204;-4.130;2023-04-03T04:44:03;5.70;;;2.50;;
49764;SDS011;35657;51.204;-4.130;2023-04-03T04:46:29;5.25;;;2.42;;
49764;SDS011;35657;51.204;-4.130;2023-04-03T04:48:55;9.15;;;3.30;;
49764;SDS011;35657;51.204;-4.130;2023-04-03T04:51:21;5.55;;;2.70;;
49764;SDS011;35657;51.204;-4.130;2023-04-03T04:53:46;6.03;;;3.38;;
49764;SDS011;35657;51.204;-4.130;2023-04-03T04:56:12;12.38;;;3.15;;
49764;SDS011;35657;51.204;-4.130;2023-04-03T04:58:38;10.35;;;3.53;;
49764;SDS011;35657;51.204;-4.130;2023-04-03T05:01:04;12.80;;;3.53;;
49764;SDS011;35657;51.204;-4.130;2023-04-03T05:03:32;9.68;;;3.35;;
49764;SDS011;35657;51.204;-4.130;2023-04-03T05:05:58;12.45;;;3.70;;
49764;SDS011;35657;51.204;-4.130;2023-04-03T05:08:24;4.72;;;1.92;;
49764;SDS011;35657;51.204;-4.130;2023-04-03T05:10:50;8.52;;;3.83;;
49764;SDS011;35657;51.204;-4.130;2023-04-03T05:13:16;11.05;;;3.72;;
49764;SDS011;35657;51.204;-4.130;2023-04-03T05:15:42;13.00;;;3.88;;
49764;SDS011;35657;51.204;-4.130;2023-04-03T05:18:08;12.00;;;3.58;;
49764;SDS011;35657;51.204;-4.130;2023-04-03T05:20:34;8.00;;;3.22;;
49764;SDS011;35657;51.204;-4.130;2023-04-03T05:23:01;10.50;;;3.72;;
49764;SDS011;35657;51.204;-4.130;2023-04-03T05:25:28;10.45;;;3.83;;
49764;SDS011;35657;51.204;-4.130;2023-04-03T05:27:54;11.43;;;3.97;;
49764;SDS011;35657;51.204;-4.130;2023-04-03T05:30:20;10.70;;;2.78;;
49764;SDS011;35657;51.204;-4.130;2023-04-03T05:32:46;8.25;;;3.72;;
49764;SDS011;35657;51.204;-4.130;2023-04-03T05:35:12;7.90;;;3.33;;
49764;SDS011;35657;51.204;-4.130;2023-04-03T05:37:38;10.57;;;3.53;;
49764;SDS011;35657;51.204;-4.130;2023-04-03T05:40:04;11.30;;;3.83;;
49764;SDS011;35657;51.204;-4.130;2023-04-03T05:42:31;7.07;;;2.63;;
49764;SDS011;35657;51.204;-4.130;2023-04-03T05:44:57;6.43;;;3.17;;
49764;SDS011;35657;51.204;-4.130;2023-04-03T05:47:23;10.05;;;3.40;;
49764;SDS011;35657;51.204;-4.130;2023-04-03T05:49:49;9.73;;;3.75;;
49764;SDS011;35657;51.204;-4.130;2023-04-03T05:52:23;10.15;;;3.75;;
49764;SDS011;35657;51.204;-4.130;2023-04-03T05:54:51;6.32;;;2.25;;
49764;SDS011;35657;51.204;-4.130;2023-04-03T05:57:17;11.57;;;2.88;;
49764;SDS011;35657;51.204;-4.130;2023-04-03T05:59:43;9.32;;;3.35;;
49764;SDS011;35657;51.204;-4.130;2023-04-03T06:02:12;9.70;;;2.90;;
49764;SDS011;35657;51.204;-4.130;2023-04-03T06:04:39;9.70;;;3.08;;
49764;SDS011;35657;51.204;-4.130;2023-04-03T06:07:05;10.00;;;2.95;;
49764;SDS011;35657;51.204;-4.130;2023-04-03T06:09:32;8.18;;;2.72;;
49764;SDS011;35657;51.204;-4.130;2023-04-03T06:11:59;5.32;;;2.85;;
49764;SDS011;35657;51.204;-4.130;2023-04-03T06:14:25;6.93;;;3.25;;
49764;SDS011;35657;51.204;-4.130;2023-04-03T06:16:52;10.15;;;3.50;;
49764;SDS011;35657;51.204;-4.130;2023-04-03T06:19:19;7.80;;;3.28;;
49764;SDS011;35657;51.204;-4.130;2023-04-03T06:21:45;11.38;;;4.18;;
49764;SDS011;35657;51.204;-4.130;2023-04-03T06:24:12;13.88;;;3.92;;
49764;SDS011;35657;51.204;-4.130;2023-04-03T06:26:41;11.13;;;3.97;;
49764;SDS011;35657;51.204;-4.130;2023-04-03T06:29:07;11.32;;;4.32;;
49764;SDS011;35657;51.204;-4.130;2023-04-03T06:31:33;13.77;;;3.90;;
49764;SDS011;35657;51.204;-4.130;2023-04-03T06:34:01;7.25;;;3.92;;
49764;SDS011;35657;51.204;-4.130;2023-04-03T06:36:27;12.50;;;4.05;;
49764;SDS011;35657;51.204;-4.130;2023-04-03T06:38:54;9.27;;;4.05;;
49764;SDS011;35657;51.204;-4.130;2023-04-03T06:41:20;11.93;;;4.13;;
49764;SDS011;35657;51.204;-4.130;2023-04-03T06:43:46;8.43;;;3.10;;
49764;SDS011;35657;51.204;-4.130;2023-04-03T06:46:16;8.18;;;3.30;;
49764;SDS011;35657;51.204;-4.130;2023-04-03T06:48:43;16.08;;;4.00;;
49764;SDS011;35657;51.204;-4.130;2023-04-03T06:53:48;11.52;;;3.58;;
49764;SDS011;35657;51.204;-4.130;2023-04-03T06:56:16;18.75;;;4.05;;
49764;SDS011;35657;51.204;-4.130;2023-04-03T06:58:42;9.95;;;3.72;;
49764;SDS011;35657;51.204;-4.130;2023-04-03T07:01:09;7.97;;;3.17;;
49764;SDS011;35657;51.204;-4.130;2023-04-03T07:03:37;8.07;;;3.75;;
49764;SDS011;35657;51.204;-4.130;2023-04-03T07:06:04;10.68;;;4.13;;
49764;SDS011;35657;51.204;-4.130;2023-04-03T07:08:30;6.82;;;2.70;;
49764;SDS011;35657;51.204;-4.130;2023-04-03T07:10:57;8.48;;;3.70;;
49764;SDS011;35657;51.204;-4.130;2023-04-03T07:13:22;7.72;;;3.58;;
49764;SDS011;35657;51.204;-4.130;2023-04-03T07:15:48;10.45;;;3.80;;
49764;SDS011;35657;51.204;-4.130;2023-04-03T07:18:15;12.13;;;3.88;;
49764;SDS011;35657;51.204;-4.130;2023-04-03T07:20:42;9.23;;;3.60;;
49764;SDS011;35657;51.204;-4.130;2023-04-03T07:23:08;11.90;;;4.03;;
49764;SDS011;35657;51.204;-4.130;2023-04-03T07:25:34;14.77;;;4.93;;
49764;SDS011;35657;51.204;-4.130;2023-04-03T07:28:00;7.88;;;3.50;;
49764;SDS011;35657;51.204;-4.130;2023-04-03T07:30:26;11.98;;;4.30;;
49764;SDS011;35657;51.204;-4.130;2023-04-03T07:32:51;10.82;;;3.30;;
49764;SDS011;35657;51.204;-4.130;2023-04-03T07:35:17;11.25;;;4.13;;
49764;SDS011;35657;51.204;-4.130;2023-04-03T07:37:44;9.77;;;4.70;;
49764;SDS011;35657;51.204;-4.130;2023-04-03T07:40:10;9.02;;;3.13;;
49764;SDS011;35657;51.204;-4.130;2023-04-03T07:42:36;14.90;;;5.57;;
49764;SDS011;35657;51.204;-4.130;2023-04-03T07:45:02;10.85;;;2.75;;
49764;SDS011;35657;51.204;-4.130;2023-04-03T07:47:29;13.00;;;3.72;;
49764;SDS011;35657;51.204;-4.130;2023-04-03T07:49:55;7.47;;;2.88;;
49764;SDS011;35657;51.204;-4.130;2023-04-03T07:52:22;10.50;;;2.88;;
49764;SDS011;35657;51.204;-4.130;2023-04-03T07:54:48;9.40;;;2.63;;
49764;SDS011;35657;51.204;-4.130;2023-04-03T07:57:14;7.80;;;3.65;;
49764;SDS011;35657;51.204;-4.130;2023-04-03T07:59:40;23.63;;;8.20;;
49764;SDS011;35657;51.204;-4.130;2023-04-03T08:02:10;26.83;;;11.32;;
49764;SDS011;35657;51.204;-4.130;2023-04-03T08:04:36;11.90;;;5.63;;
49764;SDS011;35657;51.204;-4.130;2023-04-03T08:07:02;13.00;;;3.95;;
49764;SDS011;35657;51.204;-4.130;2023-04-03T08:09:27;9.43;;;3.03;;
49764;SDS011;35657;51.204;-4.130;2023-04-03T08:11:53;5.50;;;2.20;;
49764;SDS011;35657;51.204;-4.130;2023-04-03T08:14:19;12.07;;;3.63;;
49764;SDS011;35657;51.204;-4.130;2023-04-03T08:16:46;14.38;;;4.72;;
49764;SDS011;35657;51.204;-4.130;2023-04-03T08:19:13;10.60;;;3.20;;
49764;SDS011;35657;51.204;-4.130;2023-04-03T08:21:41;13.23;;;4.70;;
49764;SDS011;35657;51.204;-4.130;2023-04-03T08:24:07;15.05;;;4.13;;
49764;SDS011;35657;51.204;-4.130;2023-04-03T08:26:34;9.85;;;3.63;;
49764;SDS011;35657;51.204;-4.130;2023-04-03T08:29:00;9.63;;;4.82;;
49764;SDS011;35657;51.204;-4.130;2023-04-03T08:31:26;7.10;;;4.32;;
49764;SDS011;35657;51.204;-4.130;2023-04-03T08:33:52;9.07;;;4.38;;
49764;SDS011;35657;51.204;-4.130;2023-04-03T08:36:28;6.07;;;2.47;;
49764;SDS011;35657;51.204;-4.130;2023-04-03T08:38:54;10.15;;;3.60;;
49764;SDS011;35657;51.204;-4.130;2023-04-03T08:51:53;9.65;;;2.92;;
49764;SDS011;35657;51.204;-4.130;2023-04-03T08:54:24;5.35;;;2.15;;
49764;SDS011;35657;51.204;-4.130;2023-04-03T08:56:55;10.35;;;3.35;;
49764;SDS011;35657;51.204;-4.130;2023-04-03T08:59:25;14.02;;;2.80;;
49764;SDS011;35657;51.204;-4.130;2023-04-03T09:01:54;12.95;;;4.07;;
49764;SDS011;35657;51.204;-4.130;2023-04-03T09:04:22;8.77;;;2.72;;
49764;SDS011;35657;51.204;-4.130;2023-04-03T09:06:50;8.48;;;3.03;;
49764;SDS011;35657;51.204;-4.130;2023-04-03T09:09:40;8.35;;;3.55;;
49764;SDS011;35657;51.204;-4.130;2023-04-03T09:12:32;7.90;;;2.78;;
49764;SDS011;35657;51.204;-4.130;2023-04-03T09:22:36;10.57;;;3.97;;
49764;SDS011;35657;51.204;-4.130;2023-04-03T09:28:02;7.53;;;2.60;;
49764;SDS011;35657;51.204;-4.130;2023-04-03T09:30:28;14.73;;;4.15;;
49764;SDS011;35657;51.204;-4.130;2023-04-03T09:32:55;12.75;;;4.78;;
49764;SDS011;35657;51.204;-4.130;2023-04-03T09:35:31;16.02;;;3.58;;
49764;SDS011;35657;51.204;-4.130;2023-04-03T09:45:51;10.82;;;3.55;;
49764;SDS011;35657;51.204;-4.130;2023-04-03T09:48:22;13.73;;;3.60;;
49764;SDS011;35657;51.204;-4.130;2023-04-03T09:58:44;12.38;;;2.75;;
49764;SDS011;35657;51.204;-4.130;2023-04-03T10:04:11;7.80;;;3.05;;
49764;SDS011;35657;51.204;-4.130;2023-04-03T10:06:41;8.52;;;3.00;;
49764;SDS011;35657;51.204;-4.130;2023-04-03T10:11:59;7.38;;;3.45;;
49764;SDS011;35657;51.204;-4.130;2023-04-03T10:14:34;11.77;;;3.22;;
49764;SDS011;35657;51.204;-4.130;2023-04-03T10:25:15;8.98;;;3.38;;
49764;SDS011;35657;51.204;-4.130;2023-04-03T10:30:27;10.85;;;4.10;;
49764;SDS011;35657;51.204;-4.130;2023-04-03T10:38:55;9.05;;;3.60;;
49764;SDS011;35657;51.204;-4.130;2023-04-03T10:46:39;9.57;;;2.53;;
49764;SDS011;35657;51.204;-4.130;2023-04-03T10:52:06;6.38;;;2.78;;
49764;SDS011;35657;51.204;-4.130;2023-04-03T10:54:43;14.10;;;2.85;;
49764;SDS011;35657;51.204;-4.130;2023-04-03T10:57:30;12.13;;;2.92;;
49764;SDS011;35657;51.204;-4.130;2023-04-03T11:00:01;6.82;;;3.17;;
49764;SDS011;35657;51.204;-4.130;2023-04-03T11:02:37;5.40;;;2.13;;
49764;SDS011;35657;51.204;-4.130;2023-04-03T11:05:30;9.27;;;3.33;;
49764;SDS011;35657;51.204;-4.130;2023-04-03T11:08:02;7.43;;;2.58;;
49764;SDS011;35657;51.204;-4.130;2023-04-03T11:10:47;6.55;;;2.55;;
49764;SDS011;35657;51.204;-4.130;2023-04-03T11:15:44;10.82;;;3.40;;
49764;SDS011;35657;51.204;-4.130;2023-04-03T11:18:19;8.57;;;2.67;;
49764;SDS011;35657;51.204;-4.130;2023-04-03T11:21:11;8.75;;;2.97;;
49764;SDS011;35657;51.204;-4.130;2023-04-03T11:23:45;7.25;;;2.40;;
49764;SDS011;35657;51.204;-4.130;2023-04-03T11:26:12;9.25;;;2.60;;
49764;SDS011;35657;51.204;-4.130;2023-04-03T11:28:43;7.40;;;1.95;;
49764;SDS011;35657;51.204;-4.130;2023-04-03T11:38:47;8.25;;;2.08;;
49764;SDS011;35657;51.204;-4.130;2023-04-03T11:41:17;6.85;;;2.65;;
49764;SDS011;35657;51.204;-4.130;2023-04-03T11:43:58;8.88;;;2.97;;
49764;SDS011;35657;51.204;-4.130;2023-04-03T11:55:51;6.88;;;2.03;;
49764;SDS011;35657;51.204;-4.130;2023-04-03T12:05:55;10.90;;;3.38;;
49764;SDS011;35657;51.204;-4.130;2023-04-03T12:48:17;6.47;;;3.67;;
49764;SDS011;35657;51.204;-4.130;2023-04-03T12:50:47;9.77;;;3.25;;
49764;SDS011;35657;51.204;-4.130;2023-04-03T12:53:19;7.35;;;3.15;;
49764;SDS011;35657;51.204;-4.130;2023-04-03T12:56:18;8.18;;;3.90;;
49764;SDS011;35657;51.204;-4.130;2023-04-03T12:58:52;7.78;;;3.88;;
49764;SDS011;35657;51.204;-4.130;2023-04-03T13:01:25;7.57;;;3.20;;
49764;SDS011;35657;51.204;-4.130;2023-04-03T13:03:52;8.98;;;3.60;;
49764;SDS011;35657;51.204;-4.130;2023-04-03T13:06:27;11.00;;;3.80;;
49764;SDS011;35657;51.204;-4.130;2023-04-03T13:08:59;8.95;;;3.35;;
49764;SDS011;35657;51.204;-4.130;2023-04-03T13:11:38;6.97;;;3.45;;
49764;SDS011;35657;51.204;-4.130;2023-04-03T13:14:17;10.13;;;4.38;;
49764;SDS011;35657;51.204;-4.130;2023-04-03T13:19:34;6.05;;;2.83;;
49764;SDS011;35657;51.204;-4.130;2023-04-03T13:22:02;13.00;;;4.25;;
49764;SDS011;35657;51.204;-4.130;2023-04-03T13:24:31;15.00;;;4.90;;
49764;SDS011;35657;51.204;-4.130;2023-04-03T13:27:00;12.05;;;4.20;;
49764;SDS011;35657;51.204;-4.130;2023-04-03T13:29:30;9.43;;;3.95;;
49764;SDS011;35657;51.204;-4.130;2023-04-03T13:32:00;7.50;;;3.63;;
49764;SDS011;35657;51.204;-4.130;2023-04-03T13:34:28;9.18;;;3.70;;
49764;SDS011;35657;51.204;-4.130;2023-04-03T13:37:01;13.55;;;4.13;;
49764;SDS011;35657;51.204;-4.130;2023-04-03T13:39:33;10.27;;;4.70;;
49764;SDS011;35657;51.204;-4.130;2023-04-03T13:42:15;9.38;;;3.08;;
49764;SDS011;35657;51.204;-4.130;2023-04-03T13:44:46;11.00;;;4.32;;
49764;SDS011;35657;51.204;-4.130;2023-04-03T13:47:19;9.10;;;4.30;;
49764;SDS011;35657;51.204;-4.130;2023-04-03T13:50:01;10.20;;;3.92;;
49764;SDS011;35657;51.204;-4.130;2023-04-03T13:55:36;9.00;;;3.80;;
49764;SDS011;35657;51.204;-4.130;2023-04-03T13:58:24;10.80;;;3.90;;
49764;SDS011;35657;51.204;-4.130;2023-04-03T14:01:17;13.38;;;3.40;;
49764;SDS011;35657;51.204;-4.130;2023-04-03T14:06:20;8.88;;;3.60;;
49764;SDS011;35657;51.204;-4.130;2023-04-03T14:08:47;16.25;;;4.55;;
49764;SDS011;35657;51.204;-4.130;2023-04-03T14:11:15;15.65;;;4.50;;
49764;SDS011;35657;51.204;-4.130;2023-04-03T14:13:41;10.38;;;3.85;;
49764;SDS011;35657;51.204;-4.130;2023-04-03T14:16:11;17.23;;;3.58;;
49764;SDS011;35657;51.204;-4.130;2023-04-03T14:18:44;11.65;;;4.63;;
49764;SDS011;35657;51.204;-4.130;2023-04-03T14:21:11;8.85;;;4.47;;
49764;SDS011;35657;51.204;-4.130;2023-04-03T14:23:38;13.73;;;3.58;;
49764;SDS011;35657;51.204;-4.130;2023-04-03T14:26:08;11.35;;;3.53;;
49764;SDS011;35657;51.204;-4.130;2023-04-03T14:28:37;9.40;;;4.22;;
49764;SDS011;35657;51.204;-4.130;2023-04-03T14:31:05;8.85;;;3.80;;
49764;SDS011;35657;51.204;-4.130;2023-04-03T14:33:30;8.88;;;3.88;;
49764;SDS011;35657;51.204;-4.130;2023-04-03T14:35:59;8.30;;;4.20;;
49764;SDS011;35657;51.204;-4.130;2023-04-03T14:38:28;5.43;;;3.42;;
49764;SDS011;35657;51.204;-4.130;2023-04-03T14:40:55;8.63;;;3.72;;
49764;SDS011;35657;51.204;-4.130;2023-04-03T14:43:22;8.18;;;3.30;;
49764;SDS011;35657;51.204;-4.130;2023-04-03T14:45:48;11.48;;;2.88;;
49764;SDS011;35657;51.204;-4.130;2023-04-03T14:48:17;12.18;;;3.60;;
49764;SDS011;35657;51.204;-4.130;2023-04-03T14:50:46;12.13;;;3.58;;
49764;SDS011;35657;51.204;-4.130;2023-04-03T14:53:12;7.35;;;3.20;;
49764;SDS011;35657;51.204;-4.130;2023-04-03T14:55:40;12.57;;;4.43;;
49764;SDS011;35657;51.204;-4.130;2023-04-03T14:58:14;11.68;;;3.13;;
49764;SDS011;35657;51.204;-4.130;2023-04-03T15:00:44;7.22;;;4.38;;
49764;SDS011;35657;51.204;-4.130;2023-04-03T15:03:15;7.45;;;5.32;;
49764;SDS011;35657;51.204;-4.130;2023-04-03T15:05:47;5.20;;;3.53;;
49764;SDS011;35657;51.204;-4.130;2023-04-03T15:08:24;9.93;;;3.50;;
49764;SDS011;35657;51.204;-4.130;2023-04-03T15:10:54;9.30;;;3.45;;
49764;SDS011;35657;51.204;-4.130;2023-04-03T15:13:23;8.48;;;3.03;;
49764;SDS011;35657;51.204;-4.130;2023-04-03T15:15:50;7.07;;;3.72;;
49764;SDS011;35657;51.204;-4.130;2023-04-03T15:18:19;8.57;;;4.50;;
49764;SDS011;35657;51.204;-4.130;2023-04-03T15:20:47;14.35;;;4.10;;
49764;SDS011;35657;51.204;-4.130;2023-04-03T15:23:14;24.23;;;9.27;;
49764;SDS011;35657;51.204;-4.130;2023-04-03T15:25:47;17.20;;;5.95;;
49764;SDS011;35657;51.204;-4.130;2023-04-03T15:28:33;14.48;;;6.15;;
49764;SDS011;35657;51.204;-4.130;2023-04-03T15:31:00;17.63;;;11.85;;
49764;SDS011;35657;51.204;-4.130;2023-04-03T15:33:27;9.13;;;4.00;;
49764;SDS011;35657;51.204;-4.130;2023-04-03T15:35:53;15.75;;;8.38;;
49764;SDS011;35657;51.204;-4.130;2023-04-03T15:38:19;9.30;;;5.47;;
49764;SDS011;35657;51.204;-4.130;2023-04-03T15:40:45;9.20;;;4.55;;
49764;SDS011;35657;51.204;-4.130;2023-04-03T15:43:14;10.60;;;3.88;;
49764;SDS011;35657;51.204;-4.130;2023-04-03T15:45:40;14.32;;;4.97;;
49764;SDS011;35657;51.204;-4.130;2023-04-03T15:48:07;8.57;;;4.00;;
49764;SDS011;35657;51.204;-4.130;2023-04-03T15:50:33;12.77;;;5.00;;
49764;SDS011;35657;51.204;-4.130;2023-04-03T15:52:59;15.50;;;5.30;;
49764;SDS011;35657;51.204;-4.130;2023-04-03T15:55:28;11.55;;;5.13;;
49764;SDS011;35657;51.204;-4.130;2023-04-03T15:57:55;10.70;;;4.40;;
49764;SDS011;35657;51.204;-4.130;2023-04-03T16:00:22;13.40;;;3.80;;
49764;SDS011;35657;51.204;-4.130;2023-04-03T16:02:50;10.40;;;3.65;;
49764;SDS011;35657;51.204;-4.130;2023-04-03T16:05:29;14.40;;;3.38;;
49764;SDS011;35657;51.204;-4.130;2023-04-03T16:07:55;10.00;;;4.50;;
49764;SDS011;35657;51.204;-4.130;2023-04-03T16:10:24;7.30;;;3.60;;
49764;SDS011;35657;51.204;-4.130;2023-04-03T16:12:50;9.32;;;4.65;;
49764;SDS011;35657;51.204;-4.130;2023-04-03T16:15:16;8.50;;;4.18;;
49764;SDS011;35657;51.204;-4.130;2023-04-03T16:17:42;9.30;;;4.93;;
49764;SDS011;35657;51.204;-4.130;2023-04-03T16:20:08;10.73;;;5.60;;
49764;SDS011;35657;51.204;-4.130;2023-04-03T16:22:35;23.48;;;13.45;;
49764;SDS011;35657;51.204;-4.130;2023-04-03T16:25:01;33.08;;;22.88;;
49764;SDS011;35657;51.204;-4.130;2023-04-03T16:27:28;18.90;;;12.55;;
49764;SDS011;35657;51.204;-4.130;2023-04-03T16:29:56;9.18;;;5.50;;
49764;SDS011;35657;51.204;-4.130;2023-04-03T16:32:22;8.80;;;5.00;;
49764;SDS011;35657;51.204;-4.130;2023-04-03T16:34:54;15.25;;;5.85;;
49764;SDS011;35657;51.204;-4.130;2023-04-03T16:37:20;11.25;;;4.93;;
49764;SDS011;35657;51.204;-4.130;2023-04-03T16:39:45;10.75;;;5.90;;
49764;SDS011;35657;51.204;-4.130;2023-04-03T16:42:11;13.40;;;5.25;;
49764;SDS011;35657;51.204;-4.130;2023-04-03T16:44:37;11.63;;;5.80;;
49764;SDS011;35657;51.204;-4.130;2023-04-03T16:47:04;11.57;;;6.28;;
49764;SDS011;35657;51.204;-4.130;2023-04-03T16:49:31;12.57;;;6.65;;
49764;SDS011;35657;51.204;-4.130;2023-04-03T16:52:00;14.25;;;6.68;;
49764;SDS011;35657;51.204;-4.130;2023-04-03T16:54:27;13.05;;;6.00;;
49764;SDS011;35657;51.204;-4.130;2023-04-03T16:56:53;11.70;;;5.03;;
49764;SDS011;35657;51.204;-4.130;2023-04-03T16:59:18;16.35;;;6.47;;
49764;SDS011;35657;51.204;-4.130;2023-04-03T17:01:44;21.63;;;11.43;;
49764;SDS011;35657;51.204;-4.130;2023-04-03T17:04:10;13.95;;;9.00;;